createdAt,value
2019-05-23T00:01:05.468Z,9.69
2019-05-23T00:04:36.843Z,9.68
2019-05-23T00:08:03.352Z,9.66
2019-05-23T00:11:39.897Z,9.66
2019-05-23T00:14:55.742Z,9.47
2019-05-23T00:18:04.921Z,9.59
2019-05-23T00:21:14.055Z,9.54
2019-05-23T00:24:20.771Z,9.49
2019-05-23T00:27:27.482Z,9.49
2019-05-23T00:30:50.310Z,9.32
2019-05-23T00:34:00.383Z,9.04
2019-05-23T00:37:09.250Z,9.13
2019-05-23T00:40:18.516Z,9.01
2019-05-23T00:43:27.789Z,8.83
2019-05-23T00:46:34.366Z,8.81
2019-05-23T00:49:41.702Z,8.92
2019-05-23T00:52:49.719Z,8.86
2019-05-23T00:55:56.488Z,8.80
2019-05-23T00:59:03.919Z,8.82
2019-05-23T01:02:11.153Z,9.21
2019-05-23T01:05:19.637Z,8.83
2019-05-23T01:08:26.951Z,8.76
2019-05-23T01:11:33.450Z,8.64
2019-05-23T01:14:40.642Z,8.42
2019-05-23T01:17:48.019Z,8.47
2019-05-23T01:21:26.122Z,8.68
2019-05-23T01:24:40.816Z,8.41
2019-05-23T01:27:47.338Z,8.67
2019-05-23T01:30:58.398Z,8.72
2019-05-23T01:34:05.567Z,8.80
2019-05-23T01:37:14.076Z,8.77
2019-05-23T01:40:22.465Z,8.41
2019-05-23T01:43:30.805Z,8.55
2019-05-23T01:46:37.766Z,8.60
2019-05-23T01:49:44.917Z,8.50
2019-05-23T01:52:52.922Z,8.69
2019-05-23T01:55:59.928Z,8.58
2019-05-23T01:59:07.328Z,8.78
2019-05-23T02:02:16.364Z,8.14
2019-05-23T02:05:23.789Z,7.80
2019-05-23T02:08:30.562Z,8.17
2019-05-23T02:11:37.526Z,8.18
2019-05-23T02:14:45.941Z,8.32
2019-05-23T02:17:53.804Z,7.94
2019-05-23T02:21:02.713Z,7.95
2019-05-23T02:24:09.449Z,8.04
2019-05-23T02:27:16.338Z,7.86
2019-05-23T02:30:34.611Z,7.92
2019-05-23T02:33:33.706Z,8.02
2019-05-23T02:36:42.315Z,7.98
2019-05-23T02:39:57.816Z,8.02
2019-05-23T02:43:05.723Z,7.77
2019-05-23T02:46:24.090Z,7.66
2019-05-23T02:49:33.884Z,7.09
2019-05-23T02:52:54.351Z,7.13
2019-05-23T02:56:06.105Z,7.03
2019-05-23T02:59:40.879Z,7.67
2019-05-23T03:02:55.031Z,7.87
2019-05-23T03:06:02.981Z,7.72
2019-05-23T03:09:12.180Z,7.82
2019-05-23T03:12:25.245Z,7.89
2019-05-23T03:15:34.052Z,7.10
2019-05-23T03:18:44.898Z,7.29
2019-05-23T03:21:55.213Z,7.27
2019-05-23T03:25:08.252Z,7.54
2019-05-23T03:28:18.720Z,7.87
2019-05-23T03:31:36.059Z,7.34
2019-05-23T03:34:45.635Z,7.34
2019-05-23T03:37:55.347Z,7.41
2019-05-23T03:41:02.307Z,7.30
2019-05-23T03:44:11.570Z,7.33
2019-05-23T03:47:20.395Z,7.28
2019-05-23T03:50:28.772Z,6.64
2019-05-23T03:53:37.105Z,7.22
2019-05-23T03:56:44.611Z,6.80
2019-05-23T03:59:51.852Z,7.21
2019-05-23T04:03:03.055Z,7.12
2019-05-23T04:06:10.102Z,7.18
2019-05-23T04:09:17.440Z,7.51
2019-05-23T04:12:24.184Z,7.17
2019-05-23T04:15:30.815Z,7.43
2019-05-23T04:18:42.352Z,6.78
2019-05-23T04:21:49.045Z,7.12
2019-05-23T04:24:55.972Z,7.01
2019-05-23T04:28:02.867Z,7.09
2019-05-23T04:31:12.997Z,7.30
2019-05-23T04:34:19.471Z,7.48
2019-05-23T04:37:25.928Z,7.64
2019-05-23T04:40:34.465Z,7.18
2019-05-23T04:43:41.294Z,7.30
2019-05-23T04:46:50.285Z,7.43
2019-05-23T04:49:56.739Z,7.58
2019-05-23T04:53:04.491Z,7.88
2019-05-23T04:56:11.587Z,7.99
2019-05-23T04:59:18.005Z,7.95
2019-05-23T05:02:28.412Z,8.28
2019-05-23T05:05:35.401Z,8.56
2019-05-23T05:08:44.667Z,8.68
2019-05-23T05:11:51.173Z,8.77
2019-05-23T05:14:57.721Z,8.79
2019-05-23T05:18:04.435Z,8.93
2019-05-23T05:21:11.230Z,8.98
2019-05-23T05:24:19.390Z,8.98
2019-05-23T05:27:26.673Z,9.04
2019-05-23T05:30:33.676Z,9.21
2019-05-23T05:33:40.545Z,9.22
2019-05-23T05:36:47.064Z,9.29
2019-05-23T05:39:55.185Z,8.92
2019-05-23T05:43:04.000Z,8.90
2019-05-23T05:46:12.843Z,9.39
2019-05-23T05:49:21.368Z,9.52
2019-05-23T05:52:30.768Z,9.63
2019-05-23T05:55:37.375Z,9.75
2019-05-23T05:58:44.446Z,9.77
2019-05-23T06:01:51.095Z,9.92
2019-05-23T06:04:58.445Z,9.89
2019-05-23T06:08:07.134Z,10.01
2019-05-23T06:11:14.226Z,10.18
2019-05-23T06:14:21.023Z,10.20
2019-05-23T06:17:28.388Z,10.43
2019-05-23T06:20:40.500Z,10.55
2019-05-23T06:23:46.865Z,10.52
2019-05-23T06:26:53.789Z,10.62
2019-05-23T06:30:00.494Z,10.96
2019-05-23T06:33:22.756Z,10.94
2019-05-23T06:36:17.584Z,10.96
2019-05-23T06:39:24.348Z,11.26
2019-05-23T06:42:31.056Z,11.21
2019-05-23T06:45:42.022Z,11.34
2019-05-23T06:48:48.617Z,11.45
2019-05-23T06:51:55.155Z,11.79
2019-05-23T06:55:01.715Z,11.91
2019-05-23T06:58:08.506Z,11.70
2019-05-23T07:01:15.187Z,11.59
2019-05-23T07:04:22.614Z,11.85
2019-05-23T07:07:31.217Z,11.96
2019-05-23T07:10:39.545Z,12.05
2019-05-23T07:13:46.209Z,12.31
2019-05-23T07:16:52.633Z,12.25
2019-05-23T07:19:59.388Z,12.05
2019-05-23T07:23:09.307Z,12.46
2019-05-23T07:26:15.968Z,12.42
2019-05-23T07:29:22.553Z,12.49
2019-05-23T07:32:29.965Z,12.50
2019-05-23T07:35:38.457Z,12.80
2019-05-23T07:38:46.710Z,13.05
2019-05-23T07:41:54.466Z,13.26
2019-05-23T07:45:01.867Z,13.31
2019-05-23T07:48:08.921Z,13.62
2019-05-23T07:51:15.586Z,13.20
2019-05-23T07:54:30.879Z,13.42
2019-05-23T07:57:37.605Z,13.63
2019-05-23T08:00:50.590Z,13.74
2019-05-23T08:03:57.581Z,13.59
2019-05-23T08:07:05.064Z,13.70
2019-05-23T08:10:13.655Z,13.62
2019-05-23T08:13:20.099Z,13.96
2019-05-23T08:16:27.542Z,13.90
2019-05-23T08:19:48.609Z,14.13
2019-05-23T08:22:44.833Z,14.00
2019-05-23T08:25:54.863Z,14.11
2019-05-23T08:29:24.725Z,14.28
2019-05-23T08:32:11.543Z,14.16
2019-05-23T08:35:18.320Z,14.23
2019-05-23T08:38:26.418Z,13.95
2019-05-23T08:41:33.627Z,13.66
2019-05-23T08:44:41.907Z,14.21
2019-05-23T08:47:48.726Z,14.56
2019-05-23T08:50:56.183Z,14.87
2019-05-23T08:54:02.699Z,14.70
2019-05-23T08:57:09.351Z,14.96
2019-05-23T09:00:17.239Z,14.95
2019-05-23T09:03:23.844Z,14.93
2019-05-23T09:06:30.845Z,15.00
2019-05-23T09:09:38.006Z,14.80
2019-05-23T09:12:47.866Z,14.77
2019-05-23T09:15:54.900Z,15.14
2019-05-23T09:19:01.431Z,15.23
2019-05-23T09:22:07.943Z,15.08
2019-05-23T09:25:15.614Z,15.28
2019-05-23T09:28:22.399Z,15.63
2019-05-23T09:31:30.672Z,15.52
2019-05-23T09:34:37.247Z,15.68
2019-05-23T09:37:44.411Z,15.57
2019-05-23T09:40:50.921Z,15.70
2019-05-23T09:43:57.320Z,15.70
2019-05-23T09:47:04.228Z,15.58
2019-05-23T09:50:13.926Z,15.33
2019-05-23T09:53:20.696Z,15.86
2019-05-23T09:56:27.316Z,16.04
2019-05-23T09:59:34.001Z,15.82
2019-05-23T10:02:41.997Z,15.57
2019-05-23T10:05:48.597Z,15.99
2019-05-23T10:08:55.030Z,15.85
2019-05-23T10:12:01.941Z,16.01
2019-05-23T10:15:11.537Z,15.88
2019-05-23T10:18:20.047Z,16.21
2019-05-23T10:21:27.772Z,16.44
2019-05-23T10:24:34.336Z,16.42
2019-05-23T10:27:41.600Z,16.68
2019-05-23T10:30:48.011Z,16.75
2019-05-23T10:33:54.542Z,16.63
2019-05-23T10:37:01.366Z,17.02
2019-05-23T10:40:08.792Z,16.79
2019-05-23T10:43:15.416Z,16.66
2019-05-23T10:46:22.557Z,16.69
2019-05-23T10:49:31.332Z,16.77
2019-05-23T10:52:38.211Z,17.32
2019-05-23T10:55:46.465Z,16.97
2019-05-23T10:58:52.933Z,17.05
2019-05-23T11:01:59.517Z,16.83
2019-05-23T11:05:13.078Z,17.57
2019-05-23T11:08:15.858Z,17.64
2019-05-23T11:11:23.206Z,16.91
2019-05-23T11:14:48.139Z,17.15
2019-05-23T11:17:55.622Z,17.58
2019-05-23T11:21:02.262Z,17.33
2019-05-23T11:24:12.595Z,17.63
2019-05-23T11:27:20.806Z,17.68
2019-05-23T11:30:38.073Z,17.72
2019-05-23T11:33:46.221Z,17.40
2019-05-23T11:36:52.667Z,17.28
2019-05-23T11:39:59.192Z,17.45
2019-05-23T11:43:06.742Z,18.11
2019-05-23T11:46:20.943Z,17.71
2019-05-23T11:49:27.646Z,17.29
2019-05-23T11:52:35.545Z,17.97
2019-05-23T11:55:43.647Z,17.98
2019-05-23T11:58:51.730Z,17.92
2019-05-23T12:02:06.807Z,17.88
2019-05-23T12:05:24.551Z,18.00
2019-05-23T12:08:32.519Z,17.56
2019-05-23T12:11:42.658Z,17.39
2019-05-23T12:14:47.340Z,17.67
2019-05-23T12:17:54.270Z,17.75
2019-05-23T12:21:00.840Z,17.46
2019-05-23T12:24:07.504Z,18.18
2019-05-23T12:27:14.608Z,18.19
2019-05-23T12:30:22.541Z,17.65
2019-05-23T12:33:29.270Z,17.45
2019-05-23T12:36:36.515Z,17.48
2019-05-23T12:39:45.840Z,17.96
2019-05-23T12:42:52.342Z,17.84
2019-05-23T12:45:58.846Z,17.65
2019-05-23T12:49:24.431Z,18.05
2019-05-23T12:52:32.618Z,17.60
2019-05-23T12:55:40.897Z,17.52
2019-05-23T12:58:47.404Z,18.02
2019-05-23T13:01:55.653Z,17.91
2019-05-23T13:06:20.351Z,17.94
2019-05-23T13:09:29.058Z,17.89
2019-05-23T13:12:35.916Z,17.80
2019-05-23T13:15:43.638Z,17.63
2019-05-23T13:18:50.420Z,17.14
2019-05-23T13:21:56.944Z,17.48
2019-05-23T13:25:03.606Z,17.40
2019-05-23T13:28:10.075Z,17.59
2019-05-23T13:31:16.772Z,17.55
2019-05-23T13:34:23.401Z,17.86
2019-05-23T13:37:30.215Z,17.64
2019-05-23T13:40:36.727Z,17.86
2019-05-23T13:43:46.585Z,17.41
2019-05-23T13:46:53.378Z,17.43
2019-05-23T13:50:01.482Z,17.40
2019-05-23T13:53:09.493Z,17.33
2019-05-23T13:56:16.785Z,18.01
2019-05-23T13:59:23.531Z,18.18
2019-05-23T14:02:30.334Z,17.97
2019-05-23T14:05:37.009Z,17.85
2019-05-23T14:08:46.786Z,17.54
2019-05-23T14:12:19.487Z,17.64
2019-05-23T14:15:02.203Z,17.69
2019-05-23T14:18:15.129Z,17.34
2019-05-23T14:21:24.911Z,17.03
2019-05-23T14:24:31.541Z,16.97
2019-05-23T14:27:43.697Z,17.76
2019-05-23T14:31:16.019Z,17.83
2019-05-23T14:34:23.083Z,17.68
2019-05-23T14:37:35.100Z,17.60
2019-05-23T14:40:46.585Z,17.96
2019-05-23T14:43:54.206Z,17.85
2019-05-23T14:47:37.962Z,17.92
2019-05-23T14:50:58.301Z,17.32
2019-05-23T14:54:08.572Z,17.68
2019-05-23T14:57:15.243Z,17.73
2019-05-23T15:00:22.912Z,17.77
2019-05-23T15:03:29.554Z,17.96
2019-05-23T15:06:36.364Z,17.68
2019-05-23T15:09:44.959Z,17.59
2019-05-23T15:12:51.555Z,17.44
2019-05-23T15:15:58.195Z,17.72
2019-05-23T15:19:05.320Z,17.83
2019-05-23T15:22:13.016Z,17.51
2019-05-23T15:25:22.788Z,17.57
2019-05-23T15:28:29.421Z,17.39
2019-05-23T15:31:36.986Z,17.67
2019-05-23T15:34:44.395Z,17.72
2019-05-23T15:37:51.027Z,17.94
2019-05-23T15:40:57.592Z,17.46
2019-05-23T15:44:22.813Z,17.45
2019-05-23T15:47:15.413Z,17.56
2019-05-23T15:50:25.265Z,17.97
2019-05-23T15:53:49.692Z,17.67
2019-05-23T15:57:21.971Z,17.09
2019-05-23T16:00:46.592Z,17.35
2019-05-23T16:03:57.128Z,17.35
2019-05-23T16:07:03.963Z,17.06
2019-05-23T16:10:13.960Z,17.19
2019-05-23T16:13:23.453Z,17.55
2019-05-23T16:16:31.128Z,17.14
2019-05-23T16:19:44.284Z,17.51
2019-05-23T16:22:53.237Z,17.81
2019-05-23T16:26:01.466Z,17.40
2019-05-23T16:29:09.754Z,17.39
2019-05-23T16:32:18.595Z,17.30
2019-05-23T16:35:25.744Z,17.01
2019-05-23T16:38:37.532Z,16.92
2019-05-23T16:41:44.093Z,17.00
2019-05-23T16:44:51.028Z,17.29
2019-05-23T16:47:57.526Z,17.44
2019-05-23T16:51:04.571Z,17.51
2019-05-23T16:54:11.639Z,16.98
2019-05-23T16:57:30.284Z,17.19
2019-05-23T17:01:02.139Z,17.17
2019-05-23T17:04:20.344Z,17.19
2019-05-23T17:07:45.124Z,17.21
2019-05-23T17:10:56.936Z,17.25
2019-05-23T17:14:12.191Z,17.10
2019-05-23T17:17:49.020Z,17.16
2019-05-23T17:20:48.545Z,17.18
2019-05-23T17:24:03.426Z,17.32
2019-05-23T17:27:35.462Z,16.94
2019-05-23T17:30:46.526Z,17.22
2019-05-23T17:33:53.199Z,17.34
2019-05-23T17:36:59.922Z,17.32
2019-05-23T17:40:23.241Z,17.20
2019-05-23T17:43:16.545Z,17.33
2019-05-23T17:46:23.202Z,17.12
2019-05-23T17:49:32.316Z,16.57
2019-05-23T17:52:40.659Z,16.92
2019-05-23T17:55:48.586Z,16.78
2019-05-23T17:58:55.146Z,16.65
2019-05-23T18:02:01.682Z,16.41
2019-05-23T18:05:09.793Z,16.52
2019-05-23T18:08:19.023Z,16.30
2019-05-23T18:11:28.535Z,16.21
2019-05-23T18:14:36.293Z,16.08
2019-05-23T18:17:42.831Z,16.19
2019-05-23T18:20:49.318Z,16.11
2019-05-23T18:23:56.142Z,16.01
2019-05-23T18:27:02.841Z,15.83
2019-05-23T18:30:15.486Z,15.64
2019-05-23T18:33:24.102Z,15.25
2019-05-23T18:36:32.280Z,15.41
2019-05-23T18:39:41.205Z,15.10
2019-05-23T18:42:48.160Z,14.75
2019-05-23T18:45:57.794Z,14.54
2019-05-23T18:49:05.921Z,14.37
2019-05-23T18:52:12.452Z,14.13
2019-05-23T18:55:19.106Z,14.15
2019-05-23T18:58:26.047Z,14.33
2019-05-23T19:01:32.805Z,14.11
2019-05-23T19:04:39.494Z,13.91
2019-05-23T19:07:46.781Z,13.60
2019-05-23T19:10:53.666Z,13.75
2019-05-23T19:14:00.278Z,13.49
2019-05-23T19:17:07.708Z,13.39
2019-05-23T19:20:14.386Z,13.51
2019-05-23T19:23:21.320Z,13.29
2019-05-23T19:26:28.179Z,13.28
2019-05-23T19:29:38.951Z,13.15
2019-05-23T19:32:47.995Z,13.16
2019-05-23T19:35:55.137Z,12.99
2019-05-23T19:39:01.692Z,12.97
2019-05-23T19:42:09.864Z,12.88
2019-05-23T19:45:16.645Z,12.66
2019-05-23T19:48:23.356Z,12.70
2019-05-23T19:51:30.424Z,12.24
2019-05-23T19:54:37.203Z,12.54
2019-05-23T19:57:44.039Z,12.70
2019-05-23T20:00:50.997Z,12.20
2019-05-23T20:03:57.706Z,12.30
2019-05-23T20:07:06.833Z,12.35
2019-05-23T20:10:14.325Z,12.02
2019-05-23T20:13:20.966Z,11.82
2019-05-23T20:16:27.506Z,12.10
2019-05-23T20:19:34.727Z,11.91
2019-05-23T20:22:41.494Z,11.51
2019-05-23T20:25:48.172Z,11.41
2019-05-23T20:28:58.051Z,11.55
2019-05-23T20:32:05.601Z,11.47
2019-05-23T20:35:12.258Z,11.37
2019-05-23T20:38:19.309Z,11.42
2019-05-23T20:41:26.155Z,11.00
2019-05-23T20:44:32.872Z,11.15
2019-05-23T20:47:41.271Z,11.44
2019-05-23T20:50:48.092Z,11.34
2019-05-23T20:53:54.848Z,11.61
2019-05-23T20:57:01.412Z,11.26
2019-05-23T21:00:10.387Z,10.79
2019-05-23T21:03:17.006Z,10.79
2019-05-23T21:06:26.121Z,11.30
2019-05-23T21:09:35.571Z,10.99
2019-05-23T21:12:42.185Z,11.21
2019-05-23T21:15:48.984Z,11.24
2019-05-23T21:18:55.427Z,11.14
2019-05-23T21:22:02.225Z,11.44
2019-05-23T21:25:08.940Z,11.05
2019-05-23T21:28:15.505Z,11.44
2019-05-23T21:31:23.350Z,11.09
2019-05-23T21:34:30.135Z,11.07
2019-05-23T21:37:37.090Z,11.33
2019-05-23T21:40:47.753Z,10.91
2019-05-23T21:43:55.496Z,10.88
2019-05-23T21:47:01.964Z,10.70
2019-05-23T21:50:08.611Z,10.54
2019-05-23T21:53:15.325Z,10.85
2019-05-23T21:56:21.840Z,10.74
2019-05-23T21:59:28.266Z,10.86
2019-05-23T22:02:37.084Z,10.79
2019-05-23T22:05:43.514Z,10.59
2019-05-23T22:08:50.480Z,10.84
2019-05-23T22:11:56.926Z,10.55
2019-05-23T22:15:04.407Z,10.73
2019-05-23T22:18:11.071Z,10.85
2019-05-23T22:21:17.648Z,10.76
2019-05-23T22:24:24.193Z,10.76
2019-05-23T22:27:31.897Z,10.87
2019-05-23T22:30:38.428Z,10.86
2019-05-23T22:33:48.858Z,10.73
2019-05-23T22:36:55.943Z,10.84
2019-05-23T22:40:06.451Z,10.79
2019-05-23T22:43:21.133Z,10.79
2019-05-23T22:46:23.534Z,10.88
2019-05-23T22:49:30.128Z,10.71
2019-05-23T22:52:38.360Z,10.46
2019-05-23T22:55:44.849Z,10.58
2019-05-23T22:58:51.414Z,10.76
2019-05-23T23:01:58.024Z,10.44
2019-05-23T23:05:04.886Z,10.62
2019-05-23T23:08:12.572Z,10.63
2019-05-23T23:11:19.312Z,10.55
2019-05-23T23:14:25.854Z,10.24
2019-05-23T23:17:32.786Z,10.15
2019-05-23T23:20:41.356Z,10.39
2019-05-23T23:23:48.087Z,10.15
2019-05-23T23:26:54.931Z,10.61
2019-05-23T23:30:03.240Z,10.66
2019-05-23T23:33:09.731Z,10.36
2019-05-23T23:36:16.196Z,10.51
2019-05-23T23:39:26.028Z,10.68
2019-05-23T23:42:32.614Z,10.38
2019-05-23T23:45:58.899Z,10.78
2019-05-23T23:49:23.205Z,10.27
2019-05-23T23:52:47.881Z,10.14
2019-05-23T23:56:14.248Z,10.33
2019-05-23T23:59:19.861Z,10.48
